createdAt,value
2022-08-25T04:03:05.125Z,6.55
2022-08-25T04:05:33.029Z,6.82
2022-08-25T04:08:03.426Z,7.82
2022-08-25T04:10:31.841Z,6.95
2022-08-25T04:13:01.158Z,7.25
2022-08-25T04:15:30.262Z,9.60
2022-08-25T04:17:58.942Z,7.50
2022-08-25T04:20:28.227Z,6.38
2022-08-25T04:22:55.939Z,6.93
2022-08-25T04:25:23.546Z,7.38
2022-08-25T04:27:51.429Z,9.25
2022-08-25T04:30:19.240Z,10.13
2022-08-25T04:32:48.201Z,7.90
2022-08-25T04:35:16.030Z,7.82
2022-08-25T04:37:45.271Z,7.03
2022-08-25T04:40:13.437Z,6.70
2022-08-25T04:42:41.157Z,7.45
2022-08-25T04:45:09.466Z,6.60
2022-08-25T04:47:40.769Z,7.90
2022-08-25T04:50:09.143Z,8.52
2022-08-25T04:52:38.051Z,7.18
2022-08-25T04:55:07.586Z,7.15
2022-08-25T04:57:35.372Z,7.72
2022-08-25T05:00:03.621Z,7.47
2022-08-25T05:02:31.322Z,7.75
2022-08-25T05:04:59.087Z,6.63
2022-08-25T05:07:27.520Z,8.25
2022-08-25T05:09:55.166Z,8.35
2022-08-25T05:12:24.089Z,7.38
2022-08-25T05:14:53.391Z,8.18
2022-08-25T05:17:21.324Z,8.05
2022-08-25T05:19:50.239Z,8.13
2022-08-25T05:22:17.942Z,10.35
2022-08-25T05:24:47.101Z,11.88
2022-08-25T05:27:14.695Z,9.52
2022-08-25T05:29:44.747Z,8.45
2022-08-25T05:32:12.512Z,7.22
2022-08-25T05:34:40.157Z,8.52
2022-08-25T05:37:11.635Z,7.93
2022-08-25T05:39:39.835Z,8.95
2022-08-25T05:42:07.949Z,8.73
2022-08-25T05:44:35.560Z,8.57
2022-08-25T05:47:04.637Z,9.52
2022-08-25T05:49:32.281Z,9.80
2022-08-25T05:52:00.211Z,10.00
2022-08-25T05:54:27.888Z,9.25
2022-08-25T05:56:55.952Z,9.27
2022-08-25T05:59:23.614Z,9.80
2022-08-25T06:02:08.981Z,9.32
2022-08-25T06:04:41.153Z,10.23
2022-08-25T06:07:09.262Z,9.48
2022-08-25T06:09:38.584Z,10.75
2022-08-25T06:12:07.377Z,10.88
2022-08-25T06:14:35.269Z,10.35
2022-08-25T06:17:03.201Z,10.07
2022-08-25T06:19:31.375Z,10.60
2022-08-25T06:22:00.359Z,10.40
2022-08-25T06:24:29.171Z,10.80
2022-08-25T06:26:57.239Z,9.80
2022-08-25T06:29:25.203Z,10.52
2022-08-25T06:31:53.454Z,11.63
2022-08-25T06:34:23.758Z,9.00
2022-08-25T06:36:52.285Z,12.57
2022-08-25T06:39:21.498Z,10.98
2022-08-25T06:41:52.515Z,12.35
2022-08-25T06:44:20.186Z,9.27
2022-08-25T06:46:47.962Z,10.65
2022-08-25T06:49:18.122Z,11.52
2022-08-25T06:51:45.908Z,10.98
2022-08-25T06:54:13.672Z,11.80
2022-08-25T06:56:43.253Z,10.77
2022-08-25T06:59:11.767Z,12.32
2022-08-25T07:01:39.887Z,12.38
2022-08-25T07:04:12.860Z,10.63
2022-08-25T07:06:41.851Z,10.68
2022-08-25T07:09:11.370Z,9.75
2022-08-25T07:11:39.588Z,12.88
2022-08-25T07:14:10.843Z,11.95
2022-08-25T07:16:39.201Z,9.35
2022-08-25T07:19:09.184Z,9.18
2022-08-25T07:21:41.321Z,10.85
2022-08-25T07:24:11.171Z,10.63
2022-08-25T07:26:42.059Z,11.77
2022-08-25T07:29:13.454Z,10.20
2022-08-25T07:31:41.645Z,12.02
2022-08-25T07:34:27.439Z,11.88
2022-08-25T07:36:57.229Z,10.57
2022-08-25T07:39:26.523Z,11.60
2022-08-25T07:41:56.114Z,10.07
2022-08-25T07:44:27.990Z,11.00
2022-08-25T07:46:56.240Z,10.52
2022-08-25T07:49:35.946Z,10.55
2022-08-25T07:52:07.549Z,12.55
2022-08-25T07:54:38.457Z,10.20
2022-08-25T07:57:09.357Z,10.52
2022-08-25T07:59:40.802Z,8.80
2022-08-25T08:02:17.713Z,10.32
2022-08-25T08:04:48.565Z,10.75
2022-08-25T08:07:19.292Z,9.80
2022-08-25T08:09:53.069Z,10.60
2022-08-25T08:12:24.469Z,10.05
2022-08-25T08:14:54.393Z,9.35
2022-08-25T08:17:23.001Z,9.13
2022-08-25T08:19:50.667Z,8.07
2022-08-25T08:22:18.795Z,8.38
2022-08-25T08:24:54.276Z,10.27
2022-08-25T08:27:23.450Z,11.13
2022-08-25T08:29:53.569Z,10.68
2022-08-25T08:32:23.805Z,10.52
2022-08-25T08:34:59.275Z,10.48
2022-08-25T08:37:27.982Z,12.15
2022-08-25T08:39:55.874Z,9.75
2022-08-25T08:42:42.961Z,9.65
2022-08-25T08:45:31.113Z,10.57
2022-08-25T08:48:23.289Z,10.00
2022-08-25T08:51:02.741Z,8.18
2022-08-25T08:53:46.239Z,8.68
2022-08-25T08:56:17.236Z,10.25
2022-08-25T08:58:50.096Z,10.20
2022-08-25T09:01:26.168Z,9.50
2022-08-25T09:04:00.817Z,9.93
2022-08-25T09:06:33.151Z,9.70
2022-08-25T09:09:06.711Z,9.57
2022-08-25T09:11:49.824Z,8.27
2022-08-25T09:14:34.733Z,9.93
2022-08-25T09:17:11.441Z,8.68
2022-08-25T09:20:18.185Z,9.88
2022-08-25T09:22:56.488Z,9.98
2022-08-25T09:25:52.460Z,9.75
2022-08-25T09:28:26.374Z,8.02
2022-08-25T09:31:01.231Z,8.55
2022-08-25T09:33:33.572Z,8.65
2022-08-25T09:36:09.006Z,9.15
2022-08-25T09:38:37.501Z,9.23
2022-08-25T09:41:07.477Z,9.10
2022-08-25T09:43:37.689Z,7.97
2022-08-25T09:46:13.432Z,8.48
2022-08-25T09:48:48.501Z,9.05
2022-08-25T09:51:27.572Z,8.63
2022-08-25T09:53:57.661Z,8.57
2022-08-25T09:56:28.340Z,6.82
2022-08-25T09:59:03.057Z,8.00
2022-08-25T10:01:32.096Z,7.10
2022-08-25T10:04:06.844Z,7.75
2022-08-25T10:06:48.487Z,8.68
2022-08-25T10:09:26.862Z,7.60
2022-08-25T10:11:57.725Z,9.68
2022-08-25T10:14:34.933Z,8.15
2022-08-25T10:17:16.127Z,9.32
2022-08-25T10:19:45.191Z,8.15
2022-08-25T10:22:22.387Z,9.50
2022-08-25T10:24:49.997Z,8.88
2022-08-25T10:27:28.593Z,8.55
2022-08-25T10:30:18.981Z,8.02
2022-08-25T10:33:10.287Z,9.93
2022-08-25T10:35:52.597Z,7.90
2022-08-25T10:38:35.467Z,7.50
2022-08-25T10:41:22.273Z,9.27
2022-08-25T10:43:58.555Z,8.25
2022-08-25T10:46:34.589Z,8.77
2022-08-25T10:49:07.023Z,7.63
2022-08-25T10:51:53.819Z,9.23
2022-08-25T10:54:31.129Z,10.05
2022-08-25T10:57:08.202Z,9.55
2022-08-25T10:59:58.593Z,9.40
2022-08-25T11:03:11.757Z,9.75
2022-08-25T11:05:44.585Z,9.85
2022-08-25T11:08:18.605Z,10.38
2022-08-25T11:10:50.609Z,10.38
2022-08-25T11:13:26.516Z,8.25
2022-08-25T11:18:51.062Z,9.40
2022-08-25T11:21:23.747Z,8.93
2022-08-25T11:23:59.406Z,10.43
2022-08-25T11:26:36.934Z,8.75
2022-08-25T11:29:12.250Z,9.13
2022-08-25T11:31:43.603Z,9.13
2022-08-25T11:34:14.415Z,8.68
2022-08-25T11:36:50.280Z,9.45
2022-08-25T11:39:34.661Z,8.32
2022-08-25T11:42:14.704Z,9.88
2022-08-25T11:44:53.807Z,8.20
2022-08-25T11:47:41.830Z,9.63
2022-08-25T11:50:30.454Z,9.02
2022-08-25T11:53:04.193Z,9.10
2022-08-25T11:55:52.240Z,8.05
2022-08-25T11:58:35.106Z,7.70
2022-08-25T12:01:04.972Z,8.45
2022-08-25T12:03:53.082Z,8.57
2022-08-25T12:06:33.070Z,8.23
2022-08-25T12:09:22.073Z,7.85
2022-08-25T12:11:54.577Z,7.80
2022-08-25T12:14:52.514Z,8.45
2022-08-25T12:17:25.441Z,8.07
2022-08-25T12:19:59.856Z,7.55
2022-08-25T12:22:51.283Z,7.85
2022-08-25T12:25:33.942Z,7.63
2022-08-25T12:28:11.092Z,7.07
2022-08-25T12:30:47.059Z,9.10
2022-08-25T12:33:29.224Z,7.22
2022-08-25T12:36:00.203Z,8.18
2022-08-25T12:38:34.983Z,8.40
2022-08-25T12:41:10.188Z,7.35
2022-08-25T12:43:42.299Z,7.28
2022-08-25T12:46:36.561Z,7.82
2022-08-25T12:49:12.182Z,8.85
2022-08-25T12:51:51.738Z,7.03
2022-08-25T12:54:25.092Z,7.55
2022-08-25T12:56:58.301Z,8.32
2022-08-25T12:59:35.983Z,8.20
2022-08-25T13:02:52.207Z,8.05
2022-08-25T13:05:46.195Z,7.97
2022-08-25T13:08:38.348Z,7.65
2022-08-25T13:11:20.383Z,6.93
2022-08-25T13:13:53.631Z,7.60
2022-08-25T13:16:29.411Z,6.70
2022-08-25T13:19:01.534Z,7.53
2022-08-25T13:21:31.925Z,6.72
2022-08-25T13:24:06.108Z,7.25
2022-08-25T13:26:38.128Z,7.97
2022-08-25T13:29:20.542Z,7.57
2022-08-25T13:31:57.375Z,6.45
2022-08-25T13:34:34.402Z,7.25
2022-08-25T13:37:24.475Z,7.07
2022-08-25T13:40:07.768Z,6.55
2022-08-25T13:42:39.220Z,7.22
2022-08-25T13:45:14.999Z,6.90
2022-08-25T13:47:45.833Z,6.20
2022-08-25T13:50:21.174Z,6.72
2022-08-25T13:52:54.243Z,6.72
2022-08-25T13:55:27.672Z,7.20
2022-08-25T13:57:59.043Z,5.57
2022-08-25T14:00:32.462Z,6.85
2022-08-25T14:03:03.833Z,7.05
2022-08-25T14:05:42.650Z,6.57
2022-08-25T14:08:32.857Z,6.93
2022-08-25T14:11:14.893Z,7.22
2022-08-25T14:13:46.206Z,5.28
2022-08-25T14:16:19.203Z,6.30
2022-08-25T14:18:52.202Z,6.10
2022-08-25T14:21:25.319Z,7.50
2022-08-25T14:23:54.352Z,7.20
2022-08-25T14:26:22.371Z,6.82
2022-08-25T14:28:50.852Z,6.55
2022-08-25T14:31:25.329Z,6.43
2022-08-25T14:33:58.016Z,6.70
2022-08-25T14:36:27.313Z,7.00
2022-08-25T14:38:57.274Z,6.15
2022-08-25T14:41:26.437Z,6.35
2022-08-25T14:43:54.709Z,6.57
2022-08-25T14:46:24.324Z,5.97
2022-08-25T14:48:57.498Z,6.22
2022-08-25T14:51:25.836Z,6.00
2022-08-25T14:53:58.691Z,5.75
2022-08-25T14:56:27.735Z,5.95
2022-08-25T14:58:57.288Z,5.72
2022-08-25T15:01:30.097Z,6.65
2022-08-25T15:04:04.342Z,7.03
2022-08-25T15:06:32.726Z,6.07
2022-08-25T15:09:08.497Z,7.43
2022-08-25T15:11:36.818Z,6.75
2022-08-25T15:14:10.976Z,6.68
2022-08-25T15:16:42.636Z,5.60
2022-08-25T15:19:14.472Z,5.63
2022-08-25T15:21:44.383Z,6.25
2022-08-25T15:24:17.575Z,6.50
2022-08-25T15:29:26.176Z,5.85
2022-08-25T15:31:53.991Z,5.85
2022-08-25T15:34:24.025Z,6.57
2022-08-25T15:36:52.307Z,6.55
2022-08-25T15:39:20.156Z,7.18
2022-08-25T15:41:49.506Z,7.65
2022-08-25T15:44:17.369Z,6.55
2022-08-25T15:46:47.126Z,6.45
2022-08-25T15:49:20.341Z,6.47
2022-08-25T15:51:54.393Z,6.45
2022-08-25T15:54:23.607Z,6.05
2022-08-25T15:56:56.759Z,5.72
2022-08-25T15:59:25.378Z,6.35
2022-08-25T16:01:54.091Z,5.90
2022-08-25T16:04:22.410Z,5.43
2022-08-25T16:06:52.817Z,5.93
2022-08-25T16:09:22.953Z,6.88
2022-08-25T16:11:56.129Z,6.45
2022-08-25T16:14:24.799Z,6.50
2022-08-25T16:16:52.801Z,6.13
2022-08-25T16:19:20.519Z,7.38
2022-08-25T16:21:48.196Z,8.02
2022-08-25T16:24:17.314Z,6.80
2022-08-25T16:26:48.054Z,5.78
2022-08-25T16:29:16.646Z,6.20
2022-08-25T16:31:44.453Z,6.88
2022-08-25T16:34:12.619Z,5.85
2022-08-25T16:36:40.406Z,5.57
2022-08-25T16:39:10.031Z,7.00
2022-08-25T16:41:39.560Z,6.22
2022-08-25T16:44:11.155Z,6.78
2022-08-25T16:46:41.801Z,7.03
2022-08-25T16:49:13.360Z,6.22
2022-08-25T16:51:43.211Z,7.55
2022-08-25T16:54:30.335Z,6.05
2022-08-25T16:56:59.325Z,5.80
2022-08-25T16:59:27.510Z,6.90
2022-08-25T17:01:55.627Z,5.90
2022-08-25T17:04:29.578Z,6.03
2022-08-25T17:07:01.898Z,5.90
2022-08-25T17:09:30.756Z,7.00
2022-08-25T17:12:01.978Z,7.38
2022-08-25T17:14:30.466Z,6.68
2022-08-25T17:16:58.463Z,5.90
2022-08-25T17:19:26.802Z,5.72
2022-08-25T17:21:55.096Z,5.43
2022-08-25T17:24:29.198Z,6.15
2022-08-25T17:27:01.312Z,6.53
2022-08-25T17:29:29.603Z,6.85
2022-08-25T17:31:58.370Z,6.32
2022-08-25T17:34:27.497Z,6.30
2022-08-25T17:36:56.230Z,6.05
2022-08-25T17:39:25.939Z,5.80
2022-08-25T17:41:54.607Z,6.07
2022-08-25T17:44:23.618Z,7.90
2022-08-25T17:46:51.855Z,6.78
2022-08-25T17:49:19.655Z,6.88
2022-08-25T17:51:47.470Z,5.95
2022-08-25T17:54:15.475Z,6.03
2022-08-25T17:56:43.609Z,5.70
2022-08-25T17:59:11.978Z,6.30
2022-08-25T18:01:42.072Z,6.57
2022-08-25T18:04:17.136Z,6.80
2022-08-25T18:06:46.437Z,5.75
2022-08-25T18:09:15.007Z,5.05
2022-08-25T18:11:43.152Z,7.10
2022-08-25T18:14:11.727Z,8.77
2022-08-25T18:16:42.223Z,6.05
2022-08-25T18:19:10.711Z,6.15
2022-08-25T18:21:52.723Z,7.63
2022-08-25T18:24:20.737Z,5.90
2022-08-25T18:26:51.695Z,6.10
2022-08-25T18:29:20.277Z,6.57
2022-08-25T18:31:51.852Z,7.47
2022-08-25T18:34:21.982Z,6.28
2022-08-25T18:36:49.729Z,7.18
2022-08-25T18:39:36.397Z,5.82
2022-08-25T18:42:06.098Z,6.25
2022-08-25T18:44:34.497Z,6.88
2022-08-25T18:47:07.667Z,6.93
2022-08-25T18:49:36.983Z,7.25
2022-08-25T18:52:05.612Z,6.25
2022-08-25T18:54:33.359Z,5.45
2022-08-25T18:57:04.171Z,6.47
2022-08-25T18:59:35.939Z,6.82
2022-08-25T19:02:05.270Z,7.35
2022-08-25T19:04:33.023Z,6.95
2022-08-25T19:07:01.456Z,6.78
2022-08-25T19:09:31.552Z,6.82
2022-08-25T19:12:00.078Z,7.93
2022-08-25T19:14:27.996Z,7.03
2022-08-25T19:16:57.801Z,7.68
2022-08-25T19:19:28.462Z,6.82
2022-08-25T19:21:58.061Z,7.40
2022-08-25T19:24:28.169Z,5.88
2022-08-25T19:26:56.465Z,6.00
2022-08-25T19:29:24.557Z,7.68
2022-08-25T19:31:53.113Z,6.50
2022-08-25T19:34:28.025Z,8.70
2022-08-25T19:37:02.178Z,7.75
2022-08-25T19:39:33.354Z,6.85
2022-08-25T19:42:01.067Z,6.32
2022-08-25T19:44:32.755Z,6.93
2022-08-25T19:47:03.201Z,7.53
2022-08-25T19:49:34.377Z,6.18
2022-08-25T19:52:10.722Z,8.02
2022-08-25T19:54:40.515Z,6.57
2022-08-25T19:57:13.671Z,6.57
2022-08-25T19:59:56.382Z,6.72
2022-08-25T20:02:29.514Z,6.28
2022-08-25T20:04:59.444Z,7.50
2022-08-25T20:07:31.509Z,7.50
2022-08-25T20:10:04.457Z,6.85
2022-08-25T20:12:32.169Z,7.13
2022-08-25T20:14:59.794Z,7.78
2022-08-25T20:17:28.601Z,7.45
2022-08-25T20:19:58.551Z,7.00
2022-08-25T20:22:27.787Z,7.03
2022-08-25T20:24:58.619Z,7.95
2022-08-25T20:27:32.036Z,7.25
2022-08-25T20:30:02.364Z,7.55
2022-08-25T20:32:31.380Z,6.72
2022-08-25T20:34:59.161Z,6.93
2022-08-25T20:37:27.181Z,7.00
2022-08-25T20:39:55.044Z,7.30
2022-08-25T20:42:24.122Z,7.45
2022-08-25T20:44:53.491Z,6.88
2022-08-25T20:47:22.469Z,6.57
2022-08-25T20:49:50.449Z,7.38
2022-08-25T20:52:19.708Z,7.95
2022-08-25T20:54:49.606Z,7.53
2022-08-25T20:57:25.938Z,6.55
2022-08-25T20:59:55.789Z,7.05
2022-08-25T21:02:24.075Z,7.00
2022-08-25T21:04:51.888Z,7.75
2022-08-25T21:07:20.733Z,7.22
2022-08-25T21:09:52.575Z,7.15
2022-08-25T21:12:22.876Z,7.63
2022-08-25T21:14:51.792Z,6.75
2022-08-25T21:17:21.687Z,6.85
2022-08-25T21:19:49.458Z,7.13
2022-08-25T21:22:17.280Z,7.95
2022-08-25T21:24:45.703Z,7.97
2022-08-25T21:27:13.435Z,7.65
2022-08-25T21:29:44.672Z,7.50
2022-08-25T21:32:24.361Z,7.55
2022-08-25T21:34:53.658Z,8.15
2022-08-25T21:37:21.319Z,7.88
2022-08-25T21:39:49.005Z,7.53
2022-08-25T21:42:16.849Z,8.55
2022-08-25T21:44:44.724Z,8.45
2022-08-25T21:47:12.320Z,7.40
2022-08-25T21:49:41.257Z,7.53
2022-08-25T21:52:09.064Z,7.63
2022-08-25T21:54:37.621Z,7.60
2022-08-25T21:57:07.537Z,7.85
2022-08-25T21:59:37.383Z,7.38
2022-08-25T22:02:07.399Z,6.60
2022-08-25T22:04:36.150Z,9.73
2022-08-25T22:07:05.592Z,7.45
2022-08-25T22:09:33.648Z,7.60
2022-08-25T22:12:02.260Z,7.75
2022-08-25T22:14:29.874Z,8.13
2022-08-25T22:16:57.689Z,7.05
2022-08-25T22:19:25.919Z,7.75
2022-08-25T22:21:54.741Z,7.28
2022-08-25T22:24:28.017Z,7.70
2022-08-25T22:26:56.413Z,8.48
2022-08-25T22:29:25.757Z,6.68
2022-08-25T22:31:54.063Z,7.10
2022-08-25T22:34:30.616Z,8.35
2022-08-25T22:37:00.165Z,7.32
2022-08-25T22:39:29.964Z,6.38
2022-08-25T22:41:58.123Z,7.53
2022-08-25T22:44:26.426Z,7.93
2022-08-25T22:46:54.390Z,8.60
2022-08-25T22:49:22.077Z,7.25
2022-08-25T22:51:49.897Z,7.47
2022-08-25T22:54:18.706Z,7.93
2022-08-25T22:56:47.693Z,7.57
2022-08-25T22:59:15.496Z,8.20
